Time;durP1;ratioP1;P1;durP2;ratioP2;P2;SDS_P1;SDS_P2;PMS_P1;PMS_P2;Temp;Humidity;BMP_temperature;BMP_pressure;BME280_temperature;BME280_humidity;BME280_pressure;Samples;Min_cycle;Max_cycle;Signal;HPM_P1;HPM_P2
2022/04/26 03:37:19;;;;;;;4.60;1.73;;;;;;;23.67;28.55;101282.84;4951006;28;20075;-50
2022/04/26 03:39:47;;;;;;;4.32;1.70;;;;;;;23.65;28.96;101282.81;4956063;29;20556;-50
2022/04/26 03:42:15;;;;;;;5.45;1.70;;;;;;;23.66;28.71;101283.72;4955438;29;20074;-48
2022/04/26 03:44:44;;;;;;;3.58;1.85;;;;;;;23.67;28.71;101269.75;4955097;29;20114;-48
2022/04/26 03:47:12;;;;;;;7.43;3.08;;;;;;;23.74;28.48;101281.25;4938423;29;20512;-47
2022/04/26 03:49:41;;;;;;;3.83;1.70;;;;;;;23.78;28.98;101277.81;4955235;29;20510;-48
2022/04/26 03:52:09;;;;;;;5.03;1.83;;;;;;;23.70;28.75;101282.91;4954953;29;20031;-47
2022/04/26 03:54:38;;;;;;;4.55;1.90;;;;;;;23.65;28.87;101290.69;4955401;29;20474;-49
2022/04/26 03:57:06;;;;;;;4.10;2.30;;;;;;;23.60;28.65;101294.06;4955001;29;20039;-49
2022/04/26 03:59:35;;;;;;;3.85;1.65;;;;;;;23.61;28.54;101295.84;4955054;29;20031;-45
2022/04/26 04:02:04;;;;;;;6.70;2.00;;;;;;;23.59;28.97;101294.91;4938063;29;20038;-48
2022/04/26 04:04:33;;;;;;;7.20;2.00;;;;;;;23.62;28.96;101302.84;4955236;29;20480;-50
2022/04/26 04:07:02;;;;;;;5.72;2.03;;;;;;;23.57;28.47;101304.47;4955302;29;20046;-48
2022/04/26 04:09:30;;;;;;;2.63;1.50;;;;;;;23.63;28.82;101310.72;4955074;29;20032;-50
2022/04/26 04:11:58;;;;;;;4.13;1.90;;;;;;;23.51;28.68;101307.88;4954890;29;20473;-47
2022/04/26 04:14:27;;;;;;;3.75;1.60;;;;;;;23.62;28.63;101308.09;4955295;29;20085;-49
2022/04/26 04:16:57;;;;;;;5.32;1.73;;;;;;;23.56;28.82;101311.47;4954898;29;20027;-50
2022/04/26 04:19:27;;;;;;;5.93;2.30;;;;;;;23.51;28.52;101310.47;4955088;29;20031;-47
2022/04/26 04:21:56;;;;;;;6.18;2.30;;;;;;;23.43;28.60;101307.72;4955396;29;20377;-49
2022/04/26 04:24:24;;;;;;;6.53;2.10;;;;;;;23.51;28.92;101307.88;4954864;29;20035;-50
2022/04/26 04:26:52;;;;;;;4.15;1.75;;;;;;;23.52;28.58;101313.13;4955383;29;20103;-53
2022/04/26 04:29:21;;;;;;;3.50;1.88;;;;;;;23.50;28.57;101313.94;4921924;29;20035;-54
2022/04/26 04:31:50;;;;;;;4.20;2.05;;;;;;;23.54;28.85;101313.16;4954769;29;20079;-49
2022/04/26 04:34:18;;;;;;;4.60;1.92;;;;;;;23.50;28.58;101312.19;4954470;29;20470;-48
2022/04/26 04:36:46;;;;;;;5.00;1.83;;;;;;;23.34;28.80;101310.13;4954315;29;20133;-53
2022/04/26 04:39:20;;;;;;;3.53;1.65;;;;;;;23.35;29.08;101315.41;4954785;29;20044;-50
2022/04/26 04:41:49;;;;;;;7.10;2.00;;;;;;;23.34;28.72;101313.63;4954937;29;20528;-53
2022/04/26 04:44:18;;;;;;;4.85;1.95;;;;;;;23.36;28.72;101311.03;4954840;29;20086;-51
2022/04/26 04:46:47;;;;;;;3.90;2.20;;;;;;;23.38;28.60;101317.19;4954912;29;20034;-47
2022/04/26 04:49:16;;;;;;;3.05;1.80;;;;;;;23.36;28.89;101313.66;4954205;28;20035;-51
2022/04/26 04:51:44;;;;;;;3.67;1.92;;;;;;;23.28;29.19;101318.72;4958139;29;20031;-53
2022/04/26 04:54:13;;;;;;;6.00;2.47;;;;;;;23.26;28.75;101320.41;4958379;29;20031;-50
2022/04/26 04:56:41;;;;;;;3.30;1.90;;;;;;;23.21;29.21;101317.72;4958298;29;20390;-50
2022/04/26 04:59:10;;;;;;;6.90;2.22;;;;;;;23.38;28.63;101325.03;4958391;29;20032;-50
2022/04/26 05:01:38;;;;;;;7.03;2.28;;;;;;;23.38;28.85;101332.91;4958246;29;20454;-53
2022/04/26 05:04:07;;;;;;;4.20;2.00;;;;;;;23.35;28.90;101330.22;4958095;29;20386;-51
2022/04/26 05:06:36;;;;;;;5.72;2.30;;;;;;;23.35;28.57;101338.06;4958601;29;20031;-49
2022/04/26 05:09:04;;;;;;;4.53;2.38;;;;;;;23.34;28.96;101336.28;4958214;29;20075;-53
2022/04/26 05:11:33;;;;;;;6.50;2.00;;;;;;;23.33;29.09;101334.56;4958136;29;20055;-52
2022/04/26 05:14:01;;;;;;;4.18;1.75;;;;;;;23.34;28.98;101339.81;4958610;29;20023;-51
2022/04/26 05:16:30;;;;;;;4.95;1.58;;;;;;;23.32;29.15;101341.50;4957658;29;20035;-50
2022/04/26 05:18:58;;;;;;;3.88;2.08;;;;;;;23.35;29.06;101349.44;4958035;29;20102;-52
2022/04/26 05:21:27;;;;;;;3.85;2.15;;;;;;;23.39;28.69;101354.75;4957406;29;20078;-52
2022/04/26 05:26:43;;;;;;;2.75;1.40;;;;;;;23.38;29.20;101358.22;4953891;29;20043;-53
2022/04/26 05:29:11;;;;;;;10.80;2.92;;;;;;;23.39;28.67;101360.84;4940672;29;20038;-53
2022/04/26 05:31:40;;;;;;;5.88;1.73;;;;;;;23.36;28.98;101366.00;4957518;29;20540;-52
2022/04/26 05:34:08;;;;;;;7.18;1.98;;;;;;;23.38;29.06;101366.94;4957699;29;20035;-50
2022/04/26 05:36:37;;;;;;;4.55;2.10;;;;;;;23.36;28.89;101372.16;4957417;29;20031;-50
2022/04/26 05:39:06;;;;;;;4.43;1.90;;;;;;;23.38;28.79;101376.53;4957327;29;20405;-51
2022/04/26 05:41:34;;;;;;;3.10;1.83;;;;;;;23.35;28.75;101373.00;4957493;29;20039;-49
2022/04/26 05:44:03;;;;;;;3.47;2.13;;;;;;;23.30;29.07;101376.38;4957600;29;20023;-51
2022/04/26 05:46:31;;;;;;;4.43;1.65;;;;;;;23.37;29.26;101388.72;4940495;29;20039;-52
2022/04/26 05:49:00;;;;;;;2.88;1.88;;;;;;;23.36;28.90;101385.25;4957450;29;20031;-53
2022/04/26 05:51:28;;;;;;;3.40;1.73;;;;;;;23.49;28.80;101394.25;4957425;29;20038;-51
2022/04/26 05:53:57;;;;;;;4.35;1.70;;;;;;;23.48;29.19;101400.34;4956999;29;20031;-45
2022/04/26 05:56:25;;;;;;;3.10;1.80;;;;;;;23.54;28.79;101396.97;4957246;29;20027;-45
2022/04/26 05:58:53;;;;;;;3.00;1.73;;;;;;;23.56;28.46;101399.59;4956925;29;20062;-52
2022/04/26 06:01:22;;;;;;;3.00;1.73;;;;;;;23.55;28.72;101403.06;4956593;28;20034;-50
2022/04/26 06:03:50;;;;;;;5.82;2.28;;;;;;;23.59;28.73;101403.16;4957405;29;20110;-48
2022/04/26 06:06:18;;;;;;;4.65;2.13;;;;;;;23.56;28.93;101407.47;4956731;29;20095;-49
2022/04/26 06:08:47;;;;;;;8.15;2.35;;;;;;;23.43;28.71;101396.72;4956823;29;20027;-47
2022/04/26 06:11:16;;;;;;;5.45;2.00;;;;;;;23.44;28.86;101408.97;4957019;29;20027;-48
2022/04/26 06:13:43;;;;;;;5.30;2.47;;;;;;;23.48;28.79;101405.59;4956977;29;20038;-50
2022/04/26 06:16:11;;;;;;;5.57;2.30;;;;;;;23.43;29.28;101408.91;4957421;29;20046;-50
2022/04/26 06:18:42;;;;;;;4.85;2.00;;;;;;;23.42;28.75;101410.66;4956641;29;20536;-54
2022/04/26 06:21:11;;;;;;;3.85;1.85;;;;;;;23.47;29.11;101410.75;4957358;29;20027;-52
2022/04/26 06:23:41;;;;;;;4.35;1.60;;;;;;;23.49;29.16;101406.44;4956741;29;20066;-50
2022/04/26 06:26:09;;;;;;;4.78;1.80;;;;;;;23.55;28.99;101410.94;4957288;29;20051;-52
2022/04/26 06:28:38;;;;;;;2.83;1.50;;;;;;;23.55;29.14;101414.44;4956686;29;20042;-50
2022/04/26 06:31:06;;;;;;;5.72;2.22;;;;;;;23.58;29.21;101408.38;4955935;29;20106;-53
2022/04/26 06:33:35;;;;;;;5.72;2.25;;;;;;;23.57;29.03;101407.53;4956677;29;20039;-51
2022/04/26 06:36:04;;;;;;;5.13;2.47;;;;;;;23.60;29.04;101406.69;4956517;29;20082;-50
2022/04/26 06:38:32;;;;;;;6.43;2.17;;;;;;;23.58;29.20;101406.63;4956705;29;20408;-48
2022/04/26 06:41:01;;;;;;;4.60;1.55;;;;;;;23.59;29.04;101407.53;4956416;29;20115;-49
2022/04/26 06:43:32;;;;;;;3.50;1.80;;;;;;;23.65;29.49;101411.16;4956290;29;20034;-48
2022/04/26 06:46:01;;;;;;;5.57;1.90;;;;;;;23.67;29.23;101416.44;4956169;29;20046;-49
2022/04/26 06:48:30;;;;;;;3.60;1.58;;;;;;;23.65;29.65;101413.78;4956191;29;20097;-49
2022/04/26 06:50:59;;;;;;;5.20;1.98;;;;;;;23.72;29.38;101414.81;4956160;29;20035;-49
2022/04/26 06:53:27;;;;;;;5.65;1.98;;;;;;;23.75;29.72;101416.59;4955841;29;20049;-47
2022/04/26 06:55:55;;;;;;;7.00;2.30;;;;;;;23.80;29.28;101422.81;4955753;29;20397;-52
2022/04/26 06:58:24;;;;;;;4.63;2.08;;;;;;;23.82;29.34;101419.41;4939179;29;20098;-50
2022/04/26 07:00:52;;;;;;;6.88;2.45;;;;;;;23.83;29.67;101421.13;4956674;29;20032;-53
2022/04/26 07:03:21;;;;;;;4.78;2.00;;;;;;;23.81;29.31;101408.88;4938836;29;20031;-53
2022/04/26 07:05:51;;;;;;;6.10;2.20;;;;;;;23.92;29.31;101419.56;4955928;29;20031;-48
2022/04/26 07:08:20;;;;;;;6.50;2.17;;;;;;;23.89;29.50;101419.50;4955922;29;20035;-47
2022/04/26 07:10:49;;;;;;;6.80;2.03;;;;;;;23.85;29.63;101420.28;4955226;29;20473;-48
2022/04/26 07:13:20;;;;;;;4.13;1.85;;;;;;;23.93;29.78;101416.09;4938174;29;20035;-47
2022/04/26 07:15:48;;;;;;;9.40;2.67;;;;;;;23.97;29.42;101418.84;4955957;29;20027;-51
2022/04/26 07:18:17;;;;;;;4.10;2.15;;;;;;;23.99;29.26;101408.41;4955534;29;20490;-49
2022/04/26 07:20:46;;;;;;;5.82;1.90;;;;;;;23.95;29.60;101420.50;4956054;29;20043;-49
2022/04/26 07:23:15;;;;;;;6.13;2.15;;;;;;;24.00;29.54;101415.41;4955272;29;20074;-49
2022/04/26 07:25:43;;;;;;;5.25;2.30;;;;;;;24.05;29.47;101416.38;4956300;29;20489;-50
2022/04/26 07:28:12;;;;;;;6.07;1.98;;;;;;;24.11;29.87;101416.50;4955581;29;20448;-49
2022/04/26 07:30:41;;;;;;;6.25;2.33;;;;;;;24.06;29.54;101406.78;4955840;29;20380;-47
2022/04/26 07:35:57;;;;;;;4.15;2.00;;;;;;;24.19;29.59;101418.38;4949145;29;20043;-48
2022/04/26 07:38:26;;;;;;;7.60;2.58;;;;;;;24.28;29.39;101418.56;4938268;29;20058;-50
2022/04/26 07:40:54;;;;;;;3.47;1.58;;;;;;;24.28;29.83;101421.19;4955645;29;20027;-50
2022/04/26 07:43:23;;;;;;;6.53;2.60;;;;;;;24.34;29.28;101417.78;4955358;29;20027;-45
2022/04/26 07:45:51;;;;;;;5.10;2.40;;;;;;;24.43;29.32;101417.94;4955576;29;20065;-48
2022/04/26 07:48:22;;;;;;;6.60;2.30;;;;;;;24.33;29.62;101427.38;4955274;29;20031;-48
2022/04/26 07:50:50;;;;;;;5.32;2.40;;;;;;;24.42;29.53;101424.94;4955313;29;20031;-45
2022/04/26 07:53:19;;;;;;;5.90;2.20;;;;;;;24.38;29.56;101423.13;4955194;29;20477;-47
2022/04/26 07:55:48;;;;;;;7.70;2.42;;;;;;;24.42;29.29;101424.94;4955467;29;20034;-49
2022/04/26 07:58:16;;;;;;;7.47;2.40;;;;;;;24.44;29.62;101419.72;4938383;29;20384;-49
2022/04/26 08:00:45;;;;;;;4.10;1.90;;;;;;;24.47;29.53;101414.53;4955298;29;20031;-51
2022/04/26 08:03:14;;;;;;;4.75;2.00;;;;;;;24.45;29.59;101426.75;4954990;29;20031;-49
2022/04/26 08:05:42;;;;;;;5.15;1.92;;;;;;;24.52;29.37;101431.25;4955068;29;20031;-48
2022/04/26 08:08:11;;;;;;;6.45;2.22;;;;;;;24.57;28.98;101424.31;4955618;29;20473;-47
2022/04/26 08:10:39;;;;;;;5.20;2.05;;;;;;;24.50;29.40;101437.31;4954987;29;20035;-46
2022/04/26 08:13:08;;;;;;;4.80;2.00;;;;;;;24.56;29.17;101426.94;4955301;29;20435;-48
2022/04/26 08:15:36;;;;;;;5.30;2.10;;;;;;;24.60;29.27;101427.88;4954872;29;20027;-47
2022/04/26 08:18:05;;;;;;;4.97;2.08;;;;;;;24.62;29.37;101424.44;4954905;29;20049;-46
2022/04/26 08:20:34;;;;;;;4.38;1.92;;;;;;;24.69;29.16;101430.66;4955030;29;20027;-47
2022/04/26 08:23:02;;;;;;;6.70;2.00;;;;;;;24.72;29.25;101434.25;4955083;29;20027;-46
2022/04/26 08:28:18;;;;;;;4.45;1.95;;;;;;;24.82;29.22;101445.78;4951315;29;20102;-47
2022/04/26 08:30:47;;;;;;;8.00;2.00;;;;;;;24.91;29.24;101444.16;4958863;29;20030;-47
2022/04/26 08:33:17;;;;;;;4.35;1.88;;;;;;;24.90;28.82;101448.53;4958730;29;20086;-46
2022/04/26 08:35:45;;;;;;;3.92;1.83;;;;;;;24.90;29.15;101448.53;4958582;29;20094;-46
2022/04/26 08:38:14;;;;;;;5.47;1.73;;;;;;;24.97;28.82;101454.78;4958478;29;20409;-50
2022/04/26 08:40:43;;;;;;;4.18;2.15;;;;;;;24.96;28.87;101456.53;4941584;29;20103;-48
2022/04/26 08:43:11;;;;;;;5.68;2.75;;;;;;;24.99;29.29;101459.19;4958528;29;20038;-48
2022/04/26 08:45:40;;;;;;;4.93;1.83;;;;;;;25.06;29.20;101459.28;4958720;29;20035;-48
2022/04/26 08:51:08;;;;;;;5.60;1.85;;;;;;;25.09;29.06;101452.34;4948972;29;20079;-47
2022/04/26 08:53:38;;;;;;;4.03;1.52;;;;;;;25.14;29.02;101455.06;4942709;29;20038;-46
2022/04/26 08:56:07;;;;;;;3.03;1.85;;;;;;;25.17;28.59;101455.09;4957823;29;20031;-48
2022/04/26 08:58:36;;;;;;;5.35;1.75;;;;;;;25.16;28.63;101469.06;4958021;29;20056;-48
2022/04/26 09:01:16;;;;;;;4.15;1.52;;;;;;;25.18;28.93;101459.47;4958464;29;20098;-48
2022/04/26 09:03:55;;;;;;;6.90;1.77;;;;;;;25.19;28.75;101471.75;4958653;29;20023;-48
2022/04/26 09:06:45;;;;;;;4.43;1.88;;;;;;;25.21;28.60;101472.66;4958203;29;20058;-50
2022/04/26 09:09:15;;;;;;;4.97;1.55;;;;;;;25.24;28.67;101471.81;4958022;29;20039;-50
2022/04/26 09:11:44;;;;;;;3.75;1.65;;;;;;;25.25;28.26;101463.97;4957874;29;20114;-51
2022/04/26 09:14:32;;;;;;;3.88;1.60;;;;;;;25.25;28.27;101460.44;4957852;29;20079;-48
2022/04/26 09:17:12;;;;;;;5.07;1.95;;;;;;;25.31;27.98;101463.19;4940692;29;20027;-46
2022/04/26 09:19:46;;;;;;;2.42;1.25;;;;;;;25.33;28.30;101450.97;4941181;29;20031;-47
2022/04/26 09:22:19;;;;;;;7.95;1.98;;;;;;;25.28;28.13;101457.88;4958108;29;20492;-50
2022/04/26 09:25:08;;;;;;;5.15;1.95;;;;;;;25.32;28.29;101463.19;4957942;29;20039;-48
2022/04/26 09:27:38;;;;;;;11.10;2.08;;;;;;;25.36;28.21;101458.00;4957810;29;20031;-49
2022/04/26 09:30:12;;;;;;;7.60;2.40;;;;;;;25.31;27.91;101450.97;4957881;29;20065;-49
2022/04/26 09:32:51;;;;;;;6.68;1.88;;;;;;;25.32;27.75;101465.81;4957254;29;20038;-51
2022/04/26 09:35:21;;;;;;;4.10;1.73;;;;;;;25.36;27.41;101464.16;4957570;28;20027;-48
2022/04/26 09:37:50;;;;;;;6.40;1.80;;;;;;;25.32;27.73;101464.97;4957324;29;20465;-49
2022/04/26 09:40:20;;;;;;;4.13;1.58;;;;;;;25.31;27.78;101466.72;4957407;29;20031;-48
2022/04/26 09:42:51;;;;;;;4.30;1.63;;;;;;;25.36;27.53;101479.00;4957000;29;20027;-48
2022/04/26 09:45:20;;;;;;;5.85;2.10;;;;;;;25.41;27.29;101462.44;4957438;29;20437;-50
2022/04/26 09:47:50;;;;;;;3.47;1.80;;;;;;;25.40;27.39;101472.94;4957892;29;20030;-49
2022/04/26 09:50:19;;;;;;;4.30;1.92;;;;;;;25.42;27.47;101471.25;4957214;29;20031;-49
2022/04/26 09:52:47;;;;;;;3.03;1.55;;;;;;;25.41;27.73;101472.97;4957250;29;20452;-49
2022/04/26 09:55:16;;;;;;;3.85;1.60;;;;;;;25.48;26.92;101466.97;4957282;29;20027;-50
2022/04/26 09:57:46;;;;;;;5.15;1.50;;;;;;;25.45;26.89;101466.94;4957322;29;20342;-49
2022/04/26 10:00:15;;;;;;;5.45;1.63;;;;;;;25.46;27.02;101465.22;4940184;29;20042;-50
2022/04/26 10:02:47;;;;;;;4.20;1.70;;;;;;;25.39;27.36;101468.56;4956654;29;20038;-49
2022/04/26 10:05:21;;;;;;;4.35;1.90;;;;;;;25.41;26.49;101474.72;4957459;29;20106;-49
2022/04/26 10:07:51;;;;;;;5.60;1.90;;;;;;;25.31;27.03;101471.06;4940278;29;20393;-52
2022/04/26 10:10:21;;;;;;;5.00;2.13;;;;;;;25.32;26.77;101468.44;4956866;29;20488;-51
2022/04/26 10:15:38;;;;;;;2.38;1.48;;;;;;;25.37;26.99;101465.91;4948011;29;20070;-52
2022/04/26 10:18:26;;;;;;;6.70;1.95;;;;;;;25.39;26.15;101474.72;4956917;29;20034;-47
2022/04/26 10:20:55;;;;;;;3.60;1.73;;;;;;;25.38;26.63;101467.69;4956902;29;20047;-48
2022/04/26 10:23:23;;;;;;;5.63;1.42;;;;;;;25.39;25.95;101468.56;4956757;29;20047;-48
2022/04/26 10:26:22;;;;;;;3.65;1.70;;;;;;;25.40;26.60;101475.56;4939808;29;20054;-51
2022/04/26 10:28:53;;;;;;;3.33;1.45;;;;;;;25.34;26.90;101468.50;4953965;29;20043;-52
2022/04/26 10:31:38;;;;;;;5.70;1.73;;;;;;;25.42;26.78;101473.88;4956752;29;20030;-49
2022/04/26 10:34:27;;;;;;;3.47;1.70;;;;;;;25.46;26.82;101465.22;4956461;29;20129;-50
2022/04/26 10:37:16;;;;;;;5.65;1.88;;;;;;;25.40;26.75;101463.31;4950439;29;20045;-51
2022/04/26 10:39:48;;;;;;;3.67;1.08;;;;;;;25.50;26.65;101460.88;4953341;29;20051;-49
2022/04/26 10:42:19;;;;;;;4.35;1.33;;;;;;;25.55;26.77;101465.31;4940058;29;20035;-49
2022/04/26 10:44:49;;;;;;;4.60;1.52;;;;;;;25.53;26.53;101471.44;4955976;29;20042;-51
2022/04/26 10:47:19;;;;;;;4.88;1.63;;;;;;;25.56;26.61;101461.84;4955287;28;20036;-51
2022/04/26 10:49:48;;;;;;;4.45;1.40;;;;;;;25.58;26.14;101470.63;4956112;29;20446;-53
2022/04/26 10:52:25;;;;;;;4.90;1.45;;;;;;;25.53;26.36;101466.19;4956135;29;20220;-51
2022/04/26 10:55:09;;;;;;;5.50;1.45;;;;;;;25.54;26.61;101468.81;4955989;29;20429;-50
2022/04/26 10:57:41;;;;;;;3.22;1.48;;;;;;;25.52;26.20;101473.16;4956082;29;20039;-53
2022/04/26 11:00:13;;;;;;;2.63;1.50;;;;;;;25.47;25.82;101469.59;4956069;29;20086;-50
2022/04/26 11:02:47;;;;;;;5.03;1.70;;;;;;;25.52;25.73;101474.91;4956583;29;20035;-50
2022/04/26 11:05:18;;;;;;;5.75;1.88;;;;;;;25.48;26.27;101474.00;4923251;29;20024;-50
2022/04/26 11:07:47;;;;;;;3.25;1.30;;;;;;;25.52;26.05;101472.28;4956089;29;20082;-50
2022/04/26 11:11:00;;;;;;;2.83;1.20;;;;;;;25.57;25.80;101460.06;5130736;27;20743;-41
2022/04/26 11:13:34;;;;;;;2.60;1.10;;;;;;;25.58;25.93;101469.72;5110699;28;20043;-46
2022/04/26 11:16:13;;;;;;;4.20;1.85;;;;;;;25.52;26.00;101462.66;5111285;28;20020;-41
2022/04/26 11:18:43;;;;;;;3.42;1.48;;;;;;;25.55;25.78;101467.94;5093198;28;20024;-41
2022/04/26 11:21:12;;;;;;;2.67;1.30;;;;;;;25.52;26.04;101472.28;5110402;28;20024;-41
2022/04/26 11:29:26;;;;;;;8.60;1.75;;;;;;;25.48;25.67;101460.84;5107068;28;20101;-41
2022/04/26 11:31:55;;;;;;;5.05;1.42;;;;;;;25.52;25.21;101470.53;5111185;28;20063;-41
2022/04/26 11:34:43;;;;;;;5.00;1.23;;;;;;;25.48;25.47;101461.72;5110721;28;20020;-48
2022/04/26 11:37:14;;;;;;;6.18;1.73;;;;;;;25.52;25.36;101475.78;5110674;28;20054;-41
2022/04/26 11:39:43;;;;;;;2.58;1.40;;;;;;;25.53;25.32;101480.19;5110516;28;20035;-43
2022/04/26 11:42:12;;;;;;;2.72;1.40;;;;;;;25.54;25.14;101476.69;5110546;28;20114;-43
2022/04/26 11:45:01;;;;;;;3.05;1.42;;;;;;;25.52;25.45;101473.16;5110777;28;20099;-50
2022/04/26 11:47:40;;;;;;;2.67;1.30;;;;;;;25.55;24.86;101459.19;5110145;28;20092;-46
2022/04/26 11:50:11;;;;;;;3.75;1.63;;;;;;;25.56;25.62;101466.22;5109028;28;20028;-46
2022/04/26 11:52:40;;;;;;;2.75;1.02;;;;;;;25.62;25.48;101468.91;5110325;28;20028;-43
2022/04/26 11:55:09;;;;;;;3.30;1.20;;;;;;;25.60;25.86;101458.41;5091973;28;20035;-41
2022/04/26 11:57:37;;;;;;;2.35;1.30;;;;;;;25.55;25.48;101465.31;5110381;28;20028;-41
2022/04/26 12:00:06;;;;;;;3.40;1.67;;;;;;;25.59;25.20;101460.97;5108644;28;20056;-41
2022/04/26 12:02:35;;;;;;;5.05;1.75;;;;;;;25.40;24.97;101444.94;5110304;28;20023;-42
2022/04/26 12:05:03;;;;;;;7.70;1.33;;;;;;;25.50;25.11;101453.00;5109947;28;20027;-41
2022/04/26 12:07:33;;;;;;;3.35;1.35;;;;;;;25.57;24.96;101463.59;5108981;28;20107;-40
2022/04/26 12:10:01;;;;;;;3.65;1.40;;;;;;;25.61;25.31;101459.28;5109609;28;20040;-40
2022/04/26 12:12:30;;;;;;;2.60;1.10;;;;;;;25.59;25.60;101464.50;5109725;28;20028;-41
2022/04/26 12:14:58;;;;;;;3.30;1.50;;;;;;;25.57;25.10;101455.72;5108204;28;20144;-41
2022/04/26 12:17:29;;;;;;;3.50;1.33;;;;;;;25.62;25.50;101455.78;5108952;28;20043;-42
2022/04/26 12:19:58;;;;;;;3.70;1.60;;;;;;;25.65;25.18;101460.22;5106478;28;20028;-41
2022/04/26 12:22:28;;;;;;;3.58;1.40;;;;;;;25.60;24.79;101447.88;5096307;28;20036;-41
2022/04/26 12:24:56;;;;;;;3.30;1.15;;;;;;;25.63;24.99;101450.56;5095000;28;20069;-46
2022/04/26 12:27:26;;;;;;;5.20;1.70;;;;;;;25.60;25.04;101440.00;5094242;28;20024;-41
2022/04/26 12:29:55;;;;;;;3.28;1.48;;;;;;;25.67;25.19;101453.22;5095007;28;20465;-41
2022/04/26 12:32:26;;;;;;;4.53;1.42;;;;;;;25.65;25.25;101452.34;5096237;28;20111;-41
2022/04/26 12:34:57;;;;;;;2.83;1.10;;;;;;;25.65;24.82;101460.22;5096255;28;20048;-42
2022/04/26 12:37:29;;;;;;;2.95;1.40;;;;;;;25.62;25.61;101451.44;5096094;28;20027;-44
2022/04/26 12:39:59;;;;;;;2.38;1.30;;;;;;;25.67;25.33;101454.09;5096477;28;20054;-46
2022/04/26 12:42:28;;;;;;;5.28;1.75;;;;;;;25.70;25.58;101453.25;5095513;28;20028;-41
2022/04/26 12:44:59;;;;;;;1.73;1.17;;;;;;;25.73;25.30;101458.56;5095429;28;20496;-41
2022/04/26 12:50:30;;;;;;;4.53;1.10;;;;;;;25.75;24.91;101449.81;5091238;28;20036;-42
2022/04/26 12:53:09;;;;;;;2.83;1.10;;;;;;;25.69;25.17;101444.50;5095866;28;20020;-41
2022/04/26 12:55:40;;;;;;;5.18;1.20;;;;;;;25.74;24.96;101450.69;5095572;28;20032;-40
2022/04/26 12:58:11;;;;;;;2.40;0.90;;;;;;;25.75;25.28;101456.84;5095908;28;20034;-41
2022/04/26 13:00:43;;;;;;;4.47;1.38;;;;;;;25.74;25.48;101457.69;5095690;28;20385;-47
2022/04/26 13:03:12;;;;;;;4.97;1.25;;;;;;;25.80;25.31;101452.53;5095735;28;20020;-41
2022/04/26 13:05:51;;;;;;;2.40;1.17;;;;;;;25.78;25.05;101444.63;5094938;28;20025;-41
2022/04/26 13:08:21;;;;;;;3.88;1.33;;;;;;;25.83;25.23;101442.03;5094915;28;20020;-41
2022/04/26 13:10:50;;;;;;;1.92;1.13;;;;;;;25.78;25.06;101434.09;5095018;28;20120;-41
2022/04/26 13:13:19;;;;;;;2.10;1.05;;;;;;;25.83;25.41;101442.03;5095298;28;20028;-41
2022/04/26 13:15:47;;;;;;;3.22;1.33;;;;;;;25.82;25.29;101435.00;5094746;28;20032;-41
2022/04/26 13:18:16;;;;;;;4.25;1.30;;;;;;;25.86;25.60;101444.72;5095278;28;20028;-41
2022/04/26 13:20:45;;;;;;;4.00;1.17;;;;;;;25.75;25.47;101425.31;5094668;28;20020;-43
2022/04/26 13:23:14;;;;;;;0.95;0.80;;;;;;;25.91;25.39;101431.63;5095375;28;20027;-41
2022/04/26 13:25:43;;;;;;;3.38;1.33;;;;;;;25.98;25.26;101436.09;5094161;28;20103;-40
2022/04/26 13:28:12;;;;;;;3.67;1.20;;;;;;;25.97;25.43;101443.97;5094947;28;20031;-40
2022/04/26 13:30:41;;;;;;;3.38;1.08;;;;;;;25.97;25.62;101441.34;5094706;28;20488;-45
2022/04/26 13:33:10;;;;;;;2.55;1.40;;;;;;;26.00;25.77;101433.47;5094120;28;20028;-41
2022/04/26 13:35:39;;;;;;;4.53;1.30;;;;;;;26.03;25.50;101438.78;5094930;28;20026;-42
2022/04/26 13:38:09;;;;;;;3.35;1.40;;;;;;;26.06;25.71;101436.19;5094790;28;20169;-43
2022/04/26 13:40:40;;;;;;;2.00;1.00;;;;;;;25.98;25.87;101433.47;5094487;28;20067;-41
2022/04/26 13:43:09;;;;;;;2.63;1.20;;;;;;;26.02;25.73;101434.38;5094692;28;20431;-41
2022/04/26 13:45:39;;;;;;;1.80;1.02;;;;;;;26.03;25.82;101437.03;5094739;28;20550;-42
2022/04/26 13:48:12;;;;;;;2.53;1.20;;;;;;;26.05;26.12;101426.53;5094564;28;20450;-41
2022/04/26 13:50:40;;;;;;;3.67;1.13;;;;;;;26.07;25.96;101416.91;5094356;28;20032;-41
2022/04/26 13:53:10;;;;;;;3.40;0.98;;;;;;;26.12;26.22;101419.63;5094739;28;20377;-41
2022/04/26 13:55:39;;;;;;;2.63;1.30;;;;;;;26.12;26.11;101414.38;5094419;28;20028;-41
2022/04/26 13:58:09;;;;;;;3.70;1.50;;;;;;;26.17;25.96;101412.69;5094744;28;20473;-45
2022/04/26 14:00:38;;;;;;;1.73;1.05;;;;;;;26.19;26.15;101418.84;5094664;28;20042;-41
2022/04/26 14:03:07;;;;;;;3.60;1.40;;;;;;;26.16;26.05;101416.19;5094355;28;20085;-41
2022/04/26 14:05:35;;;;;;;5.00;1.40;;;;;;;26.14;25.94;101403.03;5094311;28;20442;-41
2022/04/26 14:08:04;;;;;;;3.65;1.55;;;;;;;26.17;25.98;101408.28;5093993;28;20347;-44
2022/04/26 14:10:32;;;;;;;4.05;1.60;;;;;;;26.09;26.15;101402.06;5094016;28;20028;-42
2022/04/26 14:13:01;;;;;;;2.33;1.40;;;;;;;26.10;26.39;101398.56;5092920;28;20034;-42
2022/04/26 14:23:53;;;;;;;3.53;1.55;;;;;;;26.14;26.03;101397.75;5090206;28;20044;-40
2022/04/26 14:26:21;;;;;;;3.28;1.30;;;;;;;26.15;25.87;101388.97;5093701;28;20508;-47
2022/04/26 14:28:50;;;;;;;4.20;1.55;;;;;;;26.19;26.02;101395.19;5093885;28;20039;-42
2022/04/26 14:31:17;;;;;;;2.53;1.38;;;;;;;26.14;26.16;101386.34;5093754;28;20032;-41
2022/04/26 14:33:45;;;;;;;2.25;1.08;;;;;;;26.19;26.18;101396.03;5094088;28;20028;-46
2022/04/26 14:36:14;;;;;;;3.17;1.35;;;;;;;26.15;26.30;101386.34;5093771;28;20034;-43
2022/04/26 14:38:43;;;;;;;2.95;1.50;;;;;;;26.19;26.32;101393.41;5093716;28;20488;-41
2022/04/26 14:41:11;;;;;;;3.38;1.10;;;;;;;26.18;26.15;101382.91;5093805;28;20035;-40
2022/04/26 14:43:40;;;;;;;3.67;1.48;;;;;;;26.15;26.05;101378.47;5093374;28;20054;-41
2022/04/26 14:46:08;;;;;;;2.85;1.00;;;;;;;26.27;26.11;101388.22;5093636;28;20024;-45
2022/04/26 14:48:36;;;;;;;2.22;1.33;;;;;;;26.31;26.47;101391.78;5093965;28;20055;-41
2022/04/26 14:51:06;;;;;;;2.42;1.35;;;;;;;26.29;26.22;101375.97;5093368;28;20385;-46
2022/04/26 14:53:34;;;;;;;3.55;1.20;;;;;;;26.44;26.28;101385.78;5092973;28;20030;-43
2022/04/26 14:56:04;;;;;;;4.93;1.50;;;;;;;26.44;26.41;101383.16;5093492;28;20496;-41
2022/04/26 14:58:34;;;;;;;5.10;1.50;;;;;;;26.48;26.05;101370.91;5092349;28;20028;-41
2022/04/26 15:01:02;;;;;;;3.53;1.85;;;;;;;26.51;26.24;101365.66;5093553;28;20107;-41
2022/04/26 15:03:30;;;;;;;3.53;1.45;;;;;;;26.63;25.96;101368.41;5093643;28;20048;-42
2022/04/26 15:05:59;;;;;;;4.90;1.55;;;;;;;26.68;26.06;101381.59;5093451;28;20028;-41
2022/04/26 15:11:15;;;;;;;2.97;1.50;;;;;;;26.74;25.84;101381.63;5086845;28;20032;-42
2022/04/26 15:16:40;;;;;;;4.45;1.30;;;;;;;26.81;25.82;101382.59;5086735;28;20105;-44
2022/04/26 15:19:10;;;;;;;4.13;1.40;;;;;;;26.89;26.00;101369.50;5093331;28;20387;-45
2022/04/26 15:21:42;;;;;;;4.40;1.45;;;;;;;26.94;25.72;101373.06;5093419;28;20024;-41
2022/04/26 15:24:09;;;;;;;3.60;1.38;;;;;;;26.93;25.46;101366.03;5093059;28;20051;-41
2022/04/26 15:26:38;;;;;;;2.90;1.35;;;;;;;27.05;25.46;101371.34;5093064;28;20032;-41
2022/04/26 15:29:07;;;;;;;4.85;1.55;;;;;;;26.98;25.39;101367.81;5091868;28;20028;-45
2022/04/26 15:31:35;;;;;;;5.30;1.38;;;;;;;26.96;25.18;101369.53;5093109;28;20505;-43
2022/04/26 15:34:04;;;;;;;2.80;1.48;;;;;;;26.77;25.52;101372.88;5092936;28;20525;-41
2022/04/26 15:36:33;;;;;;;3.10;1.15;;;;;;;26.66;25.97;101372.78;5093116;28;20128;-40
2022/04/26 15:39:01;;;;;;;4.78;1.30;;;;;;;26.61;26.04;101370.13;5093258;28;20028;-41
2022/04/26 15:41:32;;;;;;;2.85;1.50;;;;;;;26.52;26.11;101368.28;5091935;28;20103;-41
2022/04/26 15:44:01;;;;;;;4.78;1.67;;;;;;;26.53;26.01;101369.19;5092568;28;20024;-41
2022/04/26 15:46:29;;;;;;;4.75;1.13;;;;;;;26.53;25.91;101370.06;5091938;28;20465;-41
2022/04/26 15:48:58;;;;;;;3.45;1.17;;;;;;;26.55;25.95;101367.47;5092565;28;20027;-42
2022/04/26 15:51:26;;;;;;;4.32;1.20;;;;;;;26.57;25.96;101372.72;5092711;28;20035;-42